createdAt,value
2019-01-18T00:01:18.939Z,100394.36
2019-01-18T00:03:48.513Z,100399.85
2019-01-18T00:06:18.133Z,100408.70
2019-01-18T00:08:47.686Z,100412.01
2019-01-18T00:11:17.241Z,100418.52
2019-01-18T00:13:47.181Z,100425.95
2019-01-18T00:16:17.532Z,100425.09
2019-01-18T00:18:47.101Z,100436.37
2019-01-18T00:21:16.795Z,100429.10
2019-01-18T00:23:46.360Z,100432.91
2019-01-18T00:26:15.957Z,100444.36
2019-01-18T00:28:45.542Z,100451.20
2019-01-18T00:31:15.152Z,100460.04
2019-01-18T00:33:44.689Z,100464.84
2019-01-18T00:36:14.360Z,100483.38
2019-01-18T00:38:43.989Z,100486.83
2019-01-18T00:41:13.650Z,100483.83
2019-01-18T00:43:43.214Z,100496.38
2019-01-18T00:46:12.771Z,100504.04
2019-01-18T00:48:42.402Z,100506.42
2019-01-18T00:51:11.967Z,100511.02
2019-01-18T00:53:41.553Z,100514.13
2019-01-18T00:56:11.207Z,100517.28
2019-01-18T00:58:40.787Z,100526.02
2019-01-18T01:01:10.329Z,100531.92
2019-01-18T01:03:39.885Z,100541.09
2019-01-18T01:06:09.455Z,100548.11
2019-01-18T01:08:39.124Z,100548.38
2019-01-18T01:11:08.775Z,100551.85
2019-01-18T01:13:38.421Z,100562.09
2019-01-18T01:16:08.051Z,100569.31
2019-01-18T01:18:37.593Z,100581.55
2019-01-18T01:21:07.169Z,100585.85
2019-01-18T01:23:37.013Z,100595.06
2019-01-18T01:26:06.725Z,100602.59
2019-01-18T01:28:36.327Z,100607.22
2019-01-18T01:31:05.937Z,100627.63
2019-01-18T01:33:35.515Z,100625.82
2019-01-18T01:36:05.265Z,100643.33
2019-01-18T01:38:34.978Z,100647.95
2019-01-18T01:41:04.595Z,100654.77
2019-01-18T01:43:34.231Z,100660.90
2019-01-18T01:46:03.925Z,100669.60
2019-01-18T01:48:33.505Z,100668.48
2019-01-18T01:51:03.145Z,100670.81
2019-01-18T01:53:32.777Z,100678.92
2019-01-18T01:56:03.157Z,100694.72
2019-01-18T01:58:32.863Z,100691.06
2019-01-18T02:01:02.427Z,100690.17
2019-01-18T02:03:31.969Z,100697.38
2019-01-18T02:06:01.605Z,100708.80
2019-01-18T02:08:31.163Z,100709.09
2019-01-18T02:11:00.924Z,100711.81
2019-01-18T02:13:30.573Z,100724.09
2019-01-18T02:16:00.105Z,100726.44
2019-01-18T02:18:29.809Z,100732.34
2019-01-18T02:20:59.803Z,100732.86
2019-01-18T02:23:29.561Z,100739.13
2019-01-18T02:25:59.214Z,100744.48
2019-01-18T02:28:28.773Z,100763.70
2019-01-18T02:30:58.311Z,100764.53
2019-01-18T02:33:28.149Z,100768.95
2019-01-18T02:35:58.075Z,100772.66
2019-01-18T02:38:27.634Z,100780.33
2019-01-18T02:40:57.215Z,100789.28
2019-01-18T02:43:26.771Z,100795.23
2019-01-18T02:45:56.364Z,100796.31
2019-01-18T02:48:25.891Z,100800.41
2019-01-18T02:50:55.535Z,100797.92
2019-01-18T02:53:25.102Z,100809.17
2019-01-18T02:55:54.645Z,100806.20
2019-01-18T02:58:24.195Z,100807.91
2019-01-18T03:00:53.749Z,100810.81
2019-01-18T03:03:23.406Z,100816.15
2019-01-18T03:05:53.013Z,100819.86
2019-01-18T03:08:22.672Z,100823.49
2019-01-18T03:10:52.201Z,100822.58
2019-01-18T03:13:21.805Z,100830.03
2019-01-18T03:15:51.495Z,100832.33
2019-01-18T03:18:21.030Z,100833.38
2019-01-18T03:20:50.711Z,100837.16
2019-01-18T03:23:20.264Z,100839.30
2019-01-18T03:25:49.851Z,100847.23
2019-01-18T03:28:19.412Z,100847.69
2019-01-18T03:30:48.981Z,100854.09
2019-01-18T03:33:18.500Z,100852.12
2019-01-18T03:35:48.053Z,100856.52
2019-01-18T03:38:17.610Z,100854.89
2019-01-18T03:40:47.208Z,100858.73
2019-01-18T03:43:16.771Z,100861.95
2019-01-18T03:45:46.314Z,100868.42
2019-01-18T03:48:15.907Z,100867.37
2019-01-18T03:50:45.467Z,100877.58
2019-01-18T03:53:15.029Z,100884.14
2019-01-18T03:55:44.594Z,100884.89
2019-01-18T03:58:14.158Z,100891.49
2019-01-18T04:00:43.706Z,100886.02
2019-01-18T04:03:13.362Z,100895.75
2019-01-18T04:05:42.932Z,100901.14
2019-01-18T04:08:12.494Z,100906.47
2019-01-18T04:10:42.049Z,100910.95
2019-01-18T04:13:11.692Z,100918.02
2019-01-18T04:15:41.272Z,100922.92
2019-01-18T04:18:10.822Z,100923.91
2019-01-18T04:20:40.444Z,100926.70
2019-01-18T04:23:10.123Z,100935.66
2019-01-18T04:25:39.770Z,100938.07
2019-01-18T04:28:09.365Z,100951.14
2019-01-18T04:30:38.944Z,100955.64
2019-01-18T04:33:08.478Z,100959.63
2019-01-18T04:35:38.030Z,100960.94
2019-01-18T04:38:07.619Z,100962.58
2019-01-18T04:40:37.176Z,100962.42
2019-01-18T04:43:06.856Z,100967.23
2019-01-18T04:45:36.422Z,100971.36
2019-01-18T04:48:06.216Z,100971.37
2019-01-18T04:50:35.768Z,100974.38
2019-01-18T04:53:05.417Z,100980.84
2019-01-18T04:55:34.980Z,100984.25
2019-01-18T04:58:04.628Z,100990.88
2019-01-18T05:00:40.587Z,100999.13
2019-01-18T05:03:05.595Z,101001.66
2019-01-18T05:05:35.227Z,101003.09
2019-01-18T05:08:04.838Z,101012.70
2019-01-18T05:10:34.405Z,101006.26
2019-01-18T05:13:04.027Z,101004.77
2019-01-18T05:15:34.000Z,101014.98
2019-01-18T05:18:03.544Z,101021.59
2019-01-18T05:20:33.191Z,101021.44
2019-01-18T05:23:02.760Z,101026.56
2019-01-18T05:25:32.423Z,101030.40
2019-01-18T05:28:02.163Z,101038.97
2019-01-18T05:30:31.751Z,101045.94
2019-01-18T05:33:01.381Z,101047.87
2019-01-18T05:35:30.950Z,101052.02
2019-01-18T05:38:00.536Z,101052.86
2019-01-18T05:40:30.129Z,101054.69
2019-01-18T05:42:59.972Z,101064.42
2019-01-18T05:45:29.657Z,101071.70
2019-01-18T05:47:59.219Z,101065.56
2019-01-18T05:50:29.970Z,101080.61
2019-01-18T05:53:03.409Z,101078.78
2019-01-18T05:55:32.959Z,101083.89
2019-01-18T05:58:02.649Z,101085.55
2019-01-18T06:00:55.124Z,101090.16
2019-01-18T06:03:20.284Z,101086.05
2019-01-18T06:05:49.943Z,101089.34
2019-01-18T06:08:19.574Z,101086.86
2019-01-18T06:10:49.130Z,101094.31
2019-01-18T06:13:18.795Z,101097.26
2019-01-18T06:15:48.421Z,101103.86
2019-01-18T06:18:18.053Z,101107.34
2019-01-18T06:20:47.625Z,101104.37
2019-01-18T06:23:17.257Z,101111.30
2019-01-18T06:25:46.910Z,101111.16
2019-01-18T06:28:16.467Z,101115.41
2019-01-18T06:30:46.016Z,101114.74
2019-01-18T06:33:15.596Z,101117.59
2019-01-18T06:35:45.168Z,101122.66
2019-01-18T06:38:14.717Z,101124.92
2019-01-18T06:40:45.452Z,101124.28
2019-01-18T06:43:15.087Z,101123.33
2019-01-18T06:45:44.667Z,101125.44
2019-01-18T06:48:18.358Z,101134.31
2019-01-18T06:50:47.977Z,101133.05
2019-01-18T06:53:17.501Z,101133.71
2019-01-18T06:55:47.052Z,101138.63
2019-01-18T06:58:16.609Z,101144.73
2019-01-18T07:00:46.191Z,101144.29
2019-01-18T07:03:15.817Z,101143.61
2019-01-18T07:05:45.381Z,101144.78
2019-01-18T07:08:14.924Z,101146.27
2019-01-18T07:10:44.493Z,101160.66
2019-01-18T07:13:14.090Z,101161.61
2019-01-18T07:15:43.725Z,101166.55
2019-01-18T07:18:13.281Z,101169.64
2019-01-18T07:20:42.852Z,101169.33
2019-01-18T07:23:12.436Z,101176.04
2019-01-18T07:25:42.046Z,101175.70
2019-01-18T07:28:11.778Z,101176.36
2019-01-18T07:30:42.757Z,101186.26
2019-01-18T07:33:14.017Z,101188.38
2019-01-18T07:35:43.664Z,101190.98
2019-01-18T07:38:13.320Z,101198.59
2019-01-18T07:40:42.962Z,101199.61
2019-01-18T07:43:12.808Z,101206.39
2019-01-18T07:45:42.443Z,101209.81
2019-01-18T07:48:11.997Z,101212.07
2019-01-18T07:50:41.550Z,101213.77
2019-01-18T07:53:11.187Z,101217.73
2019-01-18T07:55:40.836Z,101223.08
2019-01-18T07:58:10.401Z,101217.75
2019-01-18T08:00:39.984Z,101217.45
2019-01-18T08:03:09.639Z,101224.69
2019-01-18T08:05:39.389Z,101224.05
2019-01-18T08:08:09.201Z,101227.39
2019-01-18T08:10:38.760Z,101227.70
2019-01-18T08:13:08.421Z,101234.61
2019-01-18T08:15:38.049Z,101233.56
2019-01-18T08:18:07.659Z,101231.33
2019-01-18T08:20:37.289Z,101233.67
2019-01-18T08:23:07.019Z,101237.16
2019-01-18T08:25:36.607Z,101241.38
2019-01-18T08:28:06.532Z,101245.44
2019-01-18T08:30:36.191Z,101239.06
2019-01-18T08:33:05.752Z,101243.00
2019-01-18T08:35:35.339Z,101244.59
2019-01-18T08:38:05.119Z,101252.44
2019-01-18T08:40:38.093Z,101257.72
2019-01-18T08:43:09.768Z,101254.47
2019-01-18T08:45:42.281Z,101259.16
2019-01-18T08:48:11.944Z,101259.98
2019-01-18T08:50:41.885Z,101270.25
2019-01-18T08:53:11.467Z,101267.03
2019-01-18T08:55:41.116Z,101267.37
2019-01-18T08:58:10.685Z,101274.05
2019-01-18T09:00:40.281Z,101274.37
2019-01-18T09:03:09.940Z,101265.31
2019-01-18T09:05:48.181Z,101266.00
2019-01-18T09:08:17.891Z,101268.75
2019-01-18T09:10:47.517Z,101268.02
2019-01-18T09:13:18.428Z,101273.27
2019-01-18T09:15:48.138Z,101276.93
2019-01-18T09:18:17.791Z,101277.76
2019-01-18T09:20:47.347Z,101283.59
2019-01-18T09:23:16.988Z,101273.17
2019-01-18T09:25:46.571Z,101276.47
2019-01-18T09:28:16.197Z,101275.64
2019-01-18T09:30:45.767Z,101278.29
2019-01-18T09:33:15.538Z,101284.07
2019-01-18T09:35:50.868Z,101281.43
2019-01-18T09:38:20.467Z,101283.09
2019-01-18T09:40:50.105Z,101281.45
2019-01-18T09:43:19.697Z,101284.27
2019-01-18T09:45:49.351Z,101279.61
2019-01-18T09:48:22.271Z,101286.25
2019-01-18T09:50:51.958Z,101291.03
2019-01-18T09:53:21.627Z,101288.75
2019-01-18T09:55:51.195Z,101295.20
2019-01-18T09:58:20.777Z,101293.38
2019-01-18T10:00:50.410Z,101292.06
2019-01-18T10:03:19.970Z,101295.85
2019-01-18T10:05:49.545Z,101299.49
2019-01-18T10:08:19.100Z,101293.05
2019-01-18T10:10:48.677Z,101297.84
2019-01-18T10:13:18.292Z,101296.88
2019-01-18T10:15:48.288Z,101301.00
2019-01-18T10:18:17.913Z,101308.13
2019-01-18T10:20:47.554Z,101303.83
2019-01-18T10:23:17.206Z,101304.98
2019-01-18T10:25:46.806Z,101309.62
2019-01-18T10:28:16.392Z,101306.17
2019-01-18T10:30:45.946Z,101308.31
2019-01-18T10:33:15.527Z,101309.95
2019-01-18T10:35:45.158Z,101311.27
2019-01-18T10:38:14.717Z,101310.12
2019-01-18T10:40:44.292Z,101308.80
2019-01-18T10:43:13.879Z,101312.93
2019-01-18T10:45:43.787Z,101307.64
2019-01-18T10:48:13.369Z,101308.48
2019-01-18T10:50:42.988Z,101307.81
2019-01-18T10:53:12.555Z,101309.61
2019-01-18T10:55:42.132Z,101309.30
2019-01-18T10:58:11.740Z,101306.30
2019-01-18T11:00:41.560Z,101311.44
2019-01-18T11:03:11.421Z,101310.95
2019-01-18T11:05:41.038Z,101311.09
2019-01-18T11:08:10.612Z,101310.45
2019-01-18T11:10:40.279Z,101314.90
2019-01-18T11:13:09.852Z,101315.55
2019-01-18T11:15:39.490Z,101326.45
2019-01-18T11:18:09.116Z,101316.39
2019-01-18T11:20:45.980Z,101321.00
2019-01-18T11:23:15.610Z,101323.66
2019-01-18T11:25:45.362Z,101325.14
2019-01-18T11:28:14.923Z,101327.58
2019-01-18T11:30:44.554Z,101332.08
2019-01-18T11:33:14.250Z,101331.39
2019-01-18T11:35:43.850Z,101330.39
2019-01-18T11:38:13.726Z,101331.06
2019-01-18T11:40:43.392Z,101340.34
2019-01-18T11:43:13.086Z,101335.85
2019-01-18T11:45:42.655Z,101333.40
2019-01-18T11:48:12.344Z,101333.56
2019-01-18T11:50:41.930Z,101336.36
2019-01-18T11:53:11.589Z,101328.90
2019-01-18T11:55:41.180Z,101328.37
2019-01-18T11:58:10.778Z,101333.68
2019-01-18T12:00:40.464Z,101332.02
2019-01-18T12:03:10.314Z,101335.68
2019-01-18T12:05:43.050Z,101329.53
2019-01-18T12:08:12.807Z,101334.66
2019-01-18T12:10:42.442Z,101338.95
2019-01-18T12:13:21.943Z,101336.10
2019-01-18T12:15:51.635Z,101338.59
2019-01-18T12:18:21.247Z,101333.45
2019-01-18T12:20:50.991Z,101336.78
2019-01-18T12:23:20.906Z,101334.77
2019-01-18T12:25:50.527Z,101337.27
2019-01-18T12:28:20.298Z,101340.20
2019-01-18T12:30:49.895Z,101339.52
2019-01-18T12:33:19.638Z,101341.98
2019-01-18T12:35:49.227Z,101344.94
2019-01-18T12:38:18.917Z,101341.13
2019-01-18T12:40:48.798Z,101344.41
2019-01-18T12:43:18.677Z,101341.28
2019-01-18T12:45:48.249Z,101340.75
2019-01-18T12:48:17.845Z,101333.25
2019-01-18T12:50:47.539Z,101332.69
2019-01-18T12:53:17.126Z,101336.33
2019-01-18T12:55:46.859Z,101326.73
2019-01-18T12:58:16.528Z,101334.72
2019-01-18T13:00:46.197Z,101332.75
2019-01-18T13:03:15.755Z,101343.38
2019-01-18T13:05:50.274Z,101345.17
2019-01-18T13:08:19.860Z,101338.91
2019-01-18T13:10:49.628Z,101347.91
2019-01-18T13:13:19.329Z,101344.02
2019-01-18T13:16:22.648Z,101351.64
2019-01-18T13:18:54.748Z,101343.91
2019-01-18T13:21:24.458Z,101355.80
2019-01-18T13:23:54.087Z,101352.81
2019-01-18T13:26:23.875Z,101345.19
2019-01-18T13:28:53.645Z,101348.34
2019-01-18T13:31:23.695Z,101353.82
2019-01-18T13:33:53.802Z,101358.13
2019-01-18T13:36:23.409Z,101359.78
2019-01-18T13:38:53.195Z,101365.06
2019-01-18T13:41:22.945Z,101364.22
2019-01-18T13:43:52.695Z,101363.59
2019-01-18T13:46:22.566Z,101365.60
2019-01-18T13:48:52.354Z,101368.86
2019-01-18T13:51:22.039Z,101371.85
2019-01-18T13:53:51.670Z,101367.69
2019-01-18T13:56:21.343Z,101375.25
2019-01-18T13:58:51.103Z,101375.41
2019-01-18T14:01:20.699Z,101378.91
2019-01-18T14:03:50.315Z,101382.05
2019-01-18T14:06:19.917Z,101376.30
2019-01-18T14:08:49.545Z,101382.78
2019-01-18T14:11:19.409Z,101382.83
2019-01-18T14:13:49.056Z,101384.88
2019-01-18T14:16:18.769Z,101382.07
2019-01-18T14:18:48.371Z,101381.42
2019-01-18T14:21:18.042Z,101386.25
2019-01-18T14:23:47.770Z,101378.95
2019-01-18T14:26:17.446Z,101388.38
2019-01-18T14:28:47.025Z,101387.30
2019-01-18T14:31:16.655Z,101387.98
2019-01-18T14:33:46.352Z,101384.96
2019-01-18T14:36:16.040Z,101384.80
2019-01-18T14:38:45.725Z,101398.91
2019-01-18T14:41:15.856Z,101398.45
2019-01-18T14:43:45.507Z,101403.91
2019-01-18T14:46:15.222Z,101405.06
2019-01-18T14:48:44.943Z,101404.20
2019-01-18T14:51:14.695Z,101400.99
2019-01-18T14:53:44.371Z,101405.55
2019-01-18T14:56:14.073Z,101405.54
2019-01-18T14:58:43.682Z,101408.18
2019-01-18T15:01:13.376Z,101407.10
2019-01-18T15:03:43.173Z,101409.22
2019-01-18T15:06:12.952Z,101419.97
2019-01-18T15:08:42.778Z,101414.00
2019-01-18T15:11:12.475Z,101421.00
2019-01-18T15:13:42.174Z,101424.09
2019-01-18T15:16:11.857Z,101422.92
2019-01-18T15:18:41.453Z,101428.72
2019-01-18T15:21:11.858Z,101428.23
2019-01-18T15:23:41.551Z,101431.36
2019-01-18T15:26:11.166Z,101429.55
2019-01-18T15:28:41.059Z,101427.16
2019-01-18T15:31:10.714Z,101429.55
2019-01-18T15:33:40.687Z,101431.84
2019-01-18T15:36:10.492Z,101431.81
2019-01-18T15:38:40.148Z,101438.78
2019-01-18T15:41:09.865Z,101435.64
2019-01-18T15:43:39.483Z,101437.83
2019-01-18T15:46:09.350Z,101443.28
2019-01-18T15:48:39.041Z,101437.45
2019-01-18T15:51:08.812Z,101440.64
2019-01-18T15:53:39.132Z,101436.34
2019-01-18T15:56:08.893Z,101448.78
2019-01-18T15:58:39.494Z,101445.47
2019-01-18T16:01:09.702Z,101444.55
2019-01-18T16:03:44.284Z,101454.23
2019-01-18T16:06:13.980Z,101445.41
2019-01-18T16:08:43.971Z,101452.74
2019-01-18T16:11:39.706Z,101449.63
2019-01-18T16:14:09.316Z,101452.73
2019-01-18T16:16:51.877Z,101454.20
2019-01-18T16:19:21.714Z,101448.60
2019-01-18T16:21:51.749Z,101453.89
2019-01-18T16:24:21.695Z,101454.67
2019-01-18T16:26:52.217Z,101458.61
2019-01-18T16:29:22.203Z,101458.66
2019-01-18T16:31:51.948Z,101460.84
2019-01-18T16:34:21.790Z,101461.45
2019-01-18T16:36:51.705Z,101461.95
2019-01-18T16:39:21.495Z,101468.58
2019-01-18T16:41:51.214Z,101471.04
2019-01-18T16:44:21.064Z,101460.78
2019-01-18T16:46:50.744Z,101456.86
2019-01-18T16:49:20.377Z,101456.30
2019-01-18T16:51:50.098Z,101457.48
2019-01-18T16:54:19.754Z,101452.31
2019-01-18T16:56:49.485Z,101454.30
2019-01-18T16:59:19.167Z,101453.53
2019-01-18T17:01:48.884Z,101457.52
2019-01-18T17:04:18.572Z,101458.13
2019-01-18T17:06:48.284Z,101448.69
2019-01-18T17:09:17.928Z,101455.00
2019-01-18T17:11:47.746Z,101455.80
2019-01-18T17:14:17.394Z,101456.75
2019-01-18T17:16:47.239Z,101459.11
2019-01-18T17:19:16.854Z,101462.27
2019-01-18T17:21:46.528Z,101459.86
2019-01-18T17:24:16.102Z,101464.02
2019-01-18T17:26:45.938Z,101473.23
2019-01-18T17:29:15.536Z,101470.89
2019-01-18T17:31:45.208Z,101466.61
2019-01-18T17:34:14.884Z,101474.72
2019-01-18T17:37:09.754Z,101472.20
2019-01-18T17:40:28.785Z,101469.36
2019-01-18T17:43:38.501Z,101468.69
2019-01-18T17:46:54.261Z,101469.39
2019-01-18T17:50:01.451Z,101471.39
2019-01-18T17:53:24.535Z,101473.89
2019-01-18T17:56:41.312Z,101475.86
2019-01-18T17:59:32.962Z,101478.67
2019-01-18T18:02:43.729Z,101481.48
2019-01-18T18:06:10.686Z,101479.31
2019-01-18T18:09:08.126Z,101477.27
2019-01-18T18:12:09.661Z,101483.40
2019-01-18T18:15:12.312Z,101486.72
2019-01-18T18:17:53.412Z,101492.28
2019-01-18T18:21:06.249Z,101492.11
2019-01-18T18:24:06.554Z,101492.92
2019-01-18T18:27:00.543Z,101491.81
2019-01-18T18:30:09.737Z,101494.44
2019-01-18T18:33:32.160Z,101493.66
2019-01-18T18:36:25.664Z,101491.72
2019-01-18T18:39:29.595Z,101500.55
2019-01-18T18:42:28.689Z,101503.00
2019-01-18T18:45:42.625Z,101508.51
2019-01-18T18:48:27.049Z,101508.77
2019-01-18T18:51:53.351Z,101519.13
2019-01-18T18:55:00.039Z,101517.41
2019-01-18T18:58:19.148Z,101521.63
2019-01-18T19:01:26.906Z,101525.16
2019-01-18T19:04:29.409Z,101520.06
2019-01-18T19:07:30.258Z,101524.05
2019-01-18T19:10:53.042Z,101527.19
2019-01-18T19:14:10.141Z,101529.98
2019-01-18T19:17:07.986Z,101530.62
2019-01-18T19:20:04.383Z,101528.50
2019-01-18T19:22:59.840Z,101532.80
2019-01-18T19:26:00.880Z,101530.67
2019-01-18T19:28:56.633Z,101530.99
2019-01-18T19:31:48.004Z,101529.67
2019-01-18T19:34:42.483Z,101532.20
2019-01-18T19:37:25.039Z,101534.34
2019-01-18T19:40:41.682Z,101538.34
2019-01-18T19:43:48.632Z,101538.02
2019-01-18T19:46:44.716Z,101534.05
2019-01-18T19:49:30.068Z,101536.88
2019-01-18T19:52:29.708Z,101542.34
2019-01-18T19:55:58.931Z,101548.27
2019-01-18T19:58:38.919Z,101542.52
2019-01-18T20:01:43.609Z,101543.00
2019-01-18T20:04:43.547Z,101547.30
2019-01-18T20:07:28.901Z,101543.97
2019-01-18T20:10:19.966Z,101546.63
2019-01-18T20:13:13.127Z,101549.95
2019-01-18T20:16:17.093Z,101553.09
2019-01-18T20:19:13.858Z,101539.67
2019-01-18T20:22:10.360Z,101547.62
2019-01-18T20:25:01.023Z,101549.80
2019-01-18T20:27:54.240Z,101549.80
2019-01-18T20:30:50.486Z,101551.10
2019-01-18T20:34:01.583Z,101558.73
2019-01-18T20:37:04.250Z,101555.92
2019-01-18T20:40:13.868Z,101561.55
2019-01-18T20:43:27.817Z,101561.39
2019-01-18T20:46:23.988Z,101564.38
2019-01-18T20:49:20.225Z,101568.50
2019-01-18T20:52:22.537Z,101569.51
2019-01-18T20:55:32.864Z,101568.19
2019-01-18T20:59:01.745Z,101568.34
2019-01-18T21:02:08.537Z,101567.34
2019-01-18T21:05:02.248Z,101565.84
2019-01-18T21:08:13.412Z,101563.70
2019-01-18T21:11:17.293Z,101567.36
2019-01-18T21:14:22.527Z,101567.03
2019-01-18T21:17:15.211Z,101570.83
2019-01-18T21:20:41.457Z,101574.14
2019-01-18T21:23:21.197Z,101570.15
2019-01-18T21:26:02.867Z,101572.98
2019-01-18T21:29:09.763Z,101567.33
2019-01-18T21:32:18.396Z,101578.29
2019-01-18T21:35:02.540Z,101576.26
2019-01-18T21:38:03.726Z,101576.45
2019-01-18T21:41:26.791Z,101575.13
2019-01-18T21:44:36.268Z,101577.14
2019-01-18T21:48:05.941Z,101578.77
2019-01-18T21:51:12.577Z,101576.78
2019-01-18T21:53:51.061Z,101580.78
2019-01-18T21:57:17.128Z,101583.27
2019-01-18T22:00:19.192Z,101583.25
2019-01-18T22:03:21.179Z,101580.09
2019-01-18T22:06:22.847Z,101575.14
2019-01-18T22:09:29.390Z,101582.24
2019-01-18T22:12:27.600Z,101580.43
2019-01-18T22:15:33.211Z,101579.77
2019-01-18T22:18:21.921Z,101582.76
2019-01-18T22:21:40.940Z,101579.78
2019-01-18T22:24:31.747Z,101586.41
2019-01-18T22:27:15.717Z,101587.72
2019-01-18T22:30:30.908Z,101590.36
2019-01-18T22:33:30.881Z,101586.34
2019-01-18T22:36:34.753Z,101586.02
2019-01-18T22:40:00.208Z,101586.86
2019-01-18T22:43:04.843Z,101587.69
2019-01-18T22:46:11.605Z,101591.83
2019-01-18T22:49:13.115Z,101595.49
2019-01-18T22:52:01.560Z,101595.97
2019-01-18T22:54:59.705Z,101598.60
2019-01-18T22:57:46.846Z,101605.23
2019-01-18T23:01:04.964Z,101603.10
2019-01-18T23:04:15.751Z,101605.23
2019-01-18T23:07:25.676Z,101611.23
2019-01-18T23:10:31.484Z,101601.92
2019-01-18T23:13:38.379Z,101613.19
2019-01-18T23:17:07.344Z,101610.20
2019-01-18T23:20:05.944Z,101613.02
2019-01-18T23:23:14.829Z,101608.73
2019-01-18T23:26:32.556Z,101613.55
2019-01-18T23:29:36.759Z,101612.56
2019-01-18T23:32:54.145Z,101610.90
2019-01-18T23:36:12.526Z,101616.53
2019-01-18T23:39:12.884Z,101615.20
2019-01-18T23:42:15.398Z,101606.92
2019-01-18T23:45:14.859Z,101606.92
2019-01-18T23:47:59.352Z,101606.61
2019-01-18T23:50:49.410Z,101602.30
2019-01-18T23:53:33.351Z,101603.63
2019-01-18T23:56:52.528Z,101601.45
2019-01-18T23:59:58.810Z,101597.31
